sensor_id;sensor_type;location;lat;lon;timestamp;P1;durP1;ratioP1;P2;durP2;ratioP2
60436;SDS011;46289;51.992;4.498;2023-02-15T00:00:37;98.45;;;44.15;;
60436;SDS011;46289;51.992;4.498;2023-02-15T00:02:42;101.15;;;44.50;;
60436;SDS011;46289;51.992;4.498;2023-02-15T00:04:48;92.60;;;40.15;;
60436;SDS011;46289;51.992;4.498;2023-02-15T00:06:53;85.60;;;40.67;;
60436;SDS011;46289;51.992;4.498;2023-02-15T00:08:57;96.07;;;43.15;;
60436;SDS011;46289;51.992;4.498;2023-02-15T00:11:05;102.82;;;43.88;;
60436;SDS011;46289;51.992;4.498;2023-02-15T00:13:13;106.30;;;45.50;;
60436;SDS011;46289;51.992;4.498;2023-02-15T00:15:18;92.63;;;40.80;;
60436;SDS011;46289;51.992;4.498;2023-02-15T00:17:26;103.63;;;43.80;;
60436;SDS011;46289;51.992;4.498;2023-02-15T00:19:31;107.13;;;42.28;;
60436;SDS011;46289;51.992;4.498;2023-02-15T00:21:37;96.00;;;38.88;;
60436;SDS011;46289;51.992;4.498;2023-02-15T00:23:43;112.75;;;44.38;;
60436;SDS011;46289;51.992;4.498;2023-02-15T00:25:49;89.80;;;40.95;;
60436;SDS011;46289;51.992;4.498;2023-02-15T00:27:54;84.13;;;37.13;;
60436;SDS011;46289;51.992;4.498;2023-02-15T00:30:04;84.88;;;38.90;;
60436;SDS011;46289;51.992;4.498;2023-02-15T00:32:12;84.88;;;39.05;;
60436;SDS011;46289;51.992;4.498;2023-02-15T00:34:19;89.22;;;38.58;;
60436;SDS011;46289;51.992;4.498;2023-02-15T00:36:26;92.20;;;38.72;;
60436;SDS011;46289;51.992;4.498;2023-02-15T00:38:31;101.95;;;41.25;;
60436;SDS011;46289;51.992;4.498;2023-02-15T00:40:36;96.05;;;41.15;;
60436;SDS011;46289;51.992;4.498;2023-02-15T00:42:41;88.43;;;39.65;;
60436;SDS011;46289;51.992;4.498;2023-02-15T00:44:49;83.95;;;36.70;;
60436;SDS011;46289;51.992;4.498;2023-02-15T00:46:57;89.05;;;39.40;;
60436;SDS011;46289;51.992;4.498;2023-02-15T00:49:02;81.78;;;35.20;;
60436;SDS011;46289;51.992;4.498;2023-02-15T00:51:08;94.38;;;41.03;;
60436;SDS011;46289;51.992;4.498;2023-02-15T00:53:13;86.35;;;37.63;;
60436;SDS011;46289;51.992;4.498;2023-02-15T00:55:18;97.93;;;41.08;;
60436;SDS011;46289;51.992;4.498;2023-02-15T00:57:23;77.80;;;37.47;;
60436;SDS011;46289;51.992;4.498;2023-02-15T00:59:28;84.43;;;39.83;;
60436;SDS011;46289;51.992;4.498;2023-02-15T01:01:33;93.00;;;41.60;;
60436;SDS011;46289;51.992;4.498;2023-02-15T01:03:40;87.93;;;39.15;;
60436;SDS011;46289;51.992;4.498;2023-02-15T01:05:47;89.88;;;38.22;;
60436;SDS011;46289;51.992;4.498;2023-02-15T01:07:53;89.07;;;36.92;;
60436;SDS011;46289;51.992;4.498;2023-02-15T01:09:58;88.57;;;37.65;;
60436;SDS011;46289;51.992;4.498;2023-02-15T01:12:03;83.70;;;38.33;;
60436;SDS011;46289;51.992;4.498;2023-02-15T01:14:10;89.20;;;38.20;;
60436;SDS011;46289;51.992;4.498;2023-02-15T01:16:18;88.38;;;36.88;;
60436;SDS011;46289;51.992;4.498;2023-02-15T01:18:23;78.45;;;37.60;;
60436;SDS011;46289;51.992;4.498;2023-02-15T01:20:33;72.70;;;35.83;;
60436;SDS011;46289;51.992;4.498;2023-02-15T01:22:43;97.22;;;39.92;;
60436;SDS011;46289;51.992;4.498;2023-02-15T01:24:51;92.53;;;37.13;;
60436;SDS011;46289;51.992;4.498;2023-02-15T01:26:56;79.15;;;36.40;;
60436;SDS011;46289;51.992;4.498;2023-02-15T01:29:01;86.82;;;36.53;;
60436;SDS011;46289;51.992;4.498;2023-02-15T01:31:10;87.03;;;36.60;;
60436;SDS011;46289;51.992;4.498;2023-02-15T01:33:17;77.90;;;33.25;;
60436;SDS011;46289;51.992;4.498;2023-02-15T01:35:22;83.05;;;38.60;;
60436;SDS011;46289;51.992;4.498;2023-02-15T01:37:29;77.68;;;38.55;;
60436;SDS011;46289;51.992;4.498;2023-02-15T01:39:35;88.85;;;39.08;;
60436;SDS011;46289;51.992;4.498;2023-02-15T01:41:40;78.88;;;36.70;;
60436;SDS011;46289;51.992;4.498;2023-02-15T01:43:45;90.30;;;40.05;;
60436;SDS011;46289;51.992;4.498;2023-02-15T01:45:52;88.72;;;37.70;;
60436;SDS011;46289;51.992;4.498;2023-02-15T01:47:58;74.78;;;35.00;;
60436;SDS011;46289;51.992;4.498;2023-02-15T01:50:08;89.78;;;38.88;;
60436;SDS011;46289;51.992;4.498;2023-02-15T01:52:17;86.78;;;39.95;;
60436;SDS011;46289;51.992;4.498;2023-02-15T01:54:25;91.35;;;39.63;;
60436;SDS011;46289;51.992;4.498;2023-02-15T01:56:35;84.05;;;36.28;;
60436;SDS011;46289;51.992;4.498;2023-02-15T01:58:42;85.57;;;36.88;;
60436;SDS011;46289;51.992;4.498;2023-02-15T02:00:50;89.57;;;36.78;;
60436;SDS011;46289;51.992;4.498;2023-02-15T02:02:56;72.97;;;33.75;;
60436;SDS011;46289;51.992;4.498;2023-02-15T02:05:02;76.05;;;34.50;;
60436;SDS011;46289;51.992;4.498;2023-02-15T02:07:10;81.20;;;38.42;;
60436;SDS011;46289;51.992;4.498;2023-02-15T02:09:19;86.50;;;36.20;;
60436;SDS011;46289;51.992;4.498;2023-02-15T02:11:26;92.05;;;36.97;;
60436;SDS011;46289;51.992;4.498;2023-02-15T02:13:31;97.65;;;39.88;;
60436;SDS011;46289;51.992;4.498;2023-02-15T02:15:38;76.78;;;32.90;;
60436;SDS011;46289;51.992;4.498;2023-02-15T02:17:51;77.93;;;35.13;;
60436;SDS011;46289;51.992;4.498;2023-02-15T02:20:16;79.35;;;35.17;;
60436;SDS011;46289;51.992;4.498;2023-02-15T02:25:12;77.57;;;34.00;;
60436;SDS011;46289;51.992;4.498;2023-02-15T02:27:41;84.65;;;38.45;;
60436;SDS011;46289;51.992;4.498;2023-02-15T02:29:57;78.57;;;37.40;;
60436;SDS011;46289;51.992;4.498;2023-02-15T02:32:27;94.25;;;39.35;;
60436;SDS011;46289;51.992;4.498;2023-02-15T02:35:01;74.30;;;34.05;;
60436;SDS011;46289;51.992;4.498;2023-02-15T02:37:15;80.95;;;34.03;;
60436;SDS011;46289;51.992;4.498;2023-02-15T02:39:29;74.15;;;34.28;;
60436;SDS011;46289;51.992;4.498;2023-02-15T02:43:51;68.47;;;34.47;;
60436;SDS011;46289;51.992;4.498;2023-02-15T02:46:06;72.00;;;32.00;;
60436;SDS011;46289;51.992;4.498;2023-02-15T02:48:18;95.30;;;39.70;;
60436;SDS011;46289;51.992;4.498;2023-02-15T02:50:29;82.65;;;35.90;;
60436;SDS011;46289;51.992;4.498;2023-02-15T02:52:39;80.03;;;32.83;;
60436;SDS011;46289;51.992;4.498;2023-02-15T02:54:45;90.40;;;38.55;;
60436;SDS011;46289;51.992;4.498;2023-02-15T02:56:50;86.05;;;36.47;;
60436;SDS011;46289;51.992;4.498;2023-02-15T02:58:59;82.18;;;35.70;;
60436;SDS011;46289;51.992;4.498;2023-02-15T03:01:10;77.72;;;34.53;;
60436;SDS011;46289;51.992;4.498;2023-02-15T03:03:21;88.65;;;39.92;;
60436;SDS011;46289;51.992;4.498;2023-02-15T03:05:33;73.85;;;33.78;;
60436;SDS011;46289;51.992;4.498;2023-02-15T03:07:45;78.57;;;31.90;;
60436;SDS011;46289;51.992;4.498;2023-02-15T03:09:54;71.93;;;33.38;;
60436;SDS011;46289;51.992;4.498;2023-02-15T03:12:01;83.00;;;35.55;;
60436;SDS011;46289;51.992;4.498;2023-02-15T03:14:07;79.45;;;38.30;;
60436;SDS011;46289;51.992;4.498;2023-02-15T03:16:12;81.30;;;33.13;;
60436;SDS011;46289;51.992;4.498;2023-02-15T03:18:34;93.70;;;36.47;;
60436;SDS011;46289;51.992;4.498;2023-02-15T03:20:45;85.55;;;35.95;;
60436;SDS011;46289;51.992;4.498;2023-02-15T03:22:53;78.15;;;35.40;;
60436;SDS011;46289;51.992;4.498;2023-02-15T03:25:02;76.72;;;32.58;;
60436;SDS011;46289;51.992;4.498;2023-02-15T03:27:14;80.35;;;35.53;;
60436;SDS011;46289;51.992;4.498;2023-02-15T03:29:24;84.10;;;35.83;;
60436;SDS011;46289;51.992;4.498;2023-02-15T03:31:32;81.18;;;35.17;;
60436;SDS011;46289;51.992;4.498;2023-02-15T03:33:43;81.00;;;34.20;;
60436;SDS011;46289;51.992;4.498;2023-02-15T03:35:57;88.95;;;39.25;;
60436;SDS011;46289;51.992;4.498;2023-02-15T03:38:09;101.75;;;41.78;;
60436;SDS011;46289;51.992;4.498;2023-02-15T03:40:16;107.63;;;40.35;;
60436;SDS011;46289;51.992;4.498;2023-02-15T03:42:39;69.05;;;33.92;;
60436;SDS011;46289;51.992;4.498;2023-02-15T03:44:50;77.55;;;35.17;;
60436;SDS011;46289;51.992;4.498;2023-02-15T03:47:02;96.78;;;38.75;;
60436;SDS011;46289;51.992;4.498;2023-02-15T03:49:11;88.43;;;35.83;;
60436;SDS011;46289;51.992;4.498;2023-02-15T03:51:26;84.22;;;35.45;;
60436;SDS011;46289;51.992;4.498;2023-02-15T03:53:40;101.80;;;40.20;;
60436;SDS011;46289;51.992;4.498;2023-02-15T03:55:47;73.97;;;32.22;;
60436;SDS011;46289;51.992;4.498;2023-02-15T03:57:52;77.68;;;37.53;;
60436;SDS011;46289;51.992;4.498;2023-02-15T04:00:12;83.95;;;37.10;;
60436;SDS011;46289;51.992;4.498;2023-02-15T04:02:51;76.70;;;33.00;;
60436;SDS011;46289;51.992;4.498;2023-02-15T04:05:02;100.65;;;39.97;;
60436;SDS011;46289;51.992;4.498;2023-02-15T04:07:10;98.43;;;41.05;;
60436;SDS011;46289;51.992;4.498;2023-02-15T04:09:15;83.32;;;36.05;;
60436;SDS011;46289;51.992;4.498;2023-02-15T04:11:32;89.18;;;36.58;;
60436;SDS011;46289;51.992;4.498;2023-02-15T04:13:41;97.45;;;39.25;;
60436;SDS011;46289;51.992;4.498;2023-02-15T04:15:46;86.38;;;35.03;;
60436;SDS011;46289;51.992;4.498;2023-02-15T04:18:16;78.30;;;32.17;;
60436;SDS011;46289;51.992;4.498;2023-02-15T04:20:22;84.18;;;37.75;;
60436;SDS011;46289;51.992;4.498;2023-02-15T04:22:42;93.90;;;39.30;;
60436;SDS011;46289;51.992;4.498;2023-02-15T04:24:59;67.75;;;31.35;;
60436;SDS011;46289;51.992;4.498;2023-02-15T04:27:16;77.18;;;32.75;;
60436;SDS011;46289;51.992;4.498;2023-02-15T04:29:22;73.22;;;34.97;;
60436;SDS011;46289;51.992;4.498;2023-02-15T04:31:28;84.60;;;33.92;;
60436;SDS011;46289;51.992;4.498;2023-02-15T04:33:33;72.88;;;33.33;;
60436;SDS011;46289;51.992;4.498;2023-02-15T04:35:42;93.97;;;39.25;;
60436;SDS011;46289;51.992;4.498;2023-02-15T04:37:51;78.25;;;33.83;;
60436;SDS011;46289;51.992;4.498;2023-02-15T04:39:57;91.55;;;35.53;;
60436;SDS011;46289;51.992;4.498;2023-02-15T04:42:00;83.40;;;35.67;;
60436;SDS011;46289;51.992;4.498;2023-02-15T04:44:05;75.70;;;33.75;;
60436;SDS011;46289;51.992;4.498;2023-02-15T04:46:09;89.07;;;35.03;;
60436;SDS011;46289;51.992;4.498;2023-02-15T04:48:15;87.63;;;36.65;;
60436;SDS011;46289;51.992;4.498;2023-02-15T04:50:20;75.68;;;35.30;;
60436;SDS011;46289;51.992;4.498;2023-02-15T04:52:25;79.20;;;33.22;;
60436;SDS011;46289;51.992;4.498;2023-02-15T04:54:33;79.30;;;37.00;;
60436;SDS011;46289;51.992;4.498;2023-02-15T04:56:38;97.82;;;40.80;;
60436;SDS011;46289;51.992;4.498;2023-02-15T04:58:43;82.45;;;35.72;;
60436;SDS011;46289;51.992;4.498;2023-02-15T05:00:51;80.55;;;37.55;;
60436;SDS011;46289;51.992;4.498;2023-02-15T05:02:59;93.75;;;38.33;;
60436;SDS011;46289;51.992;4.498;2023-02-15T05:05:04;81.55;;;37.35;;
60436;SDS011;46289;51.992;4.498;2023-02-15T05:07:11;90.00;;;36.67;;
60436;SDS011;46289;51.992;4.498;2023-02-15T05:09:16;76.35;;;31.02;;
60436;SDS011;46289;51.992;4.498;2023-02-15T05:11:24;93.75;;;40.75;;
60436;SDS011;46289;51.992;4.498;2023-02-15T05:13:29;94.35;;;37.25;;
60436;SDS011;46289;51.992;4.498;2023-02-15T05:15:37;80.85;;;35.72;;
60436;SDS011;46289;51.992;4.498;2023-02-15T05:17:45;81.30;;;34.08;;
60436;SDS011;46289;51.992;4.498;2023-02-15T05:19:50;84.22;;;37.78;;
60436;SDS011;46289;51.992;4.498;2023-02-15T05:21:55;78.90;;;35.53;;
60436;SDS011;46289;51.992;4.498;2023-02-15T05:24:00;89.63;;;38.42;;
60436;SDS011;46289;51.992;4.498;2023-02-15T05:26:28;74.00;;;34.53;;
60436;SDS011;46289;51.992;4.498;2023-02-15T05:28:48;99.20;;;38.15;;
60436;SDS011;46289;51.992;4.498;2023-02-15T05:30:56;111.30;;;43.00;;
60436;SDS011;46289;51.992;4.498;2023-02-15T05:33:06;87.60;;;37.25;;
60436;SDS011;46289;51.992;4.498;2023-02-15T05:35:12;111.95;;;40.20;;
60436;SDS011;46289;51.992;4.498;2023-02-15T05:37:17;103.55;;;40.97;;
60436;SDS011;46289;51.992;4.498;2023-02-15T05:39:22;95.70;;;39.13;;
60436;SDS011;46289;51.992;4.498;2023-02-15T05:41:30;91.32;;;39.97;;
60436;SDS011;46289;51.992;4.498;2023-02-15T05:43:35;84.05;;;35.80;;
60436;SDS011;46289;51.992;4.498;2023-02-15T05:45:43;107.20;;;40.95;;
60436;SDS011;46289;51.992;4.498;2023-02-15T05:47:51;86.22;;;35.83;;
60436;SDS011;46289;51.992;4.498;2023-02-15T05:49:56;100.97;;;42.08;;
60436;SDS011;46289;51.992;4.498;2023-02-15T05:52:02;89.53;;;39.13;;
60436;SDS011;46289;51.992;4.498;2023-02-15T05:54:08;93.85;;;36.65;;
60436;SDS011;46289;51.992;4.498;2023-02-15T05:56:13;105.60;;;41.13;;
60436;SDS011;46289;51.992;4.498;2023-02-15T05:58:21;92.07;;;38.05;;
60436;SDS011;46289;51.992;4.498;2023-02-15T06:00:26;100.28;;;40.67;;
60436;SDS011;46289;51.992;4.498;2023-02-15T06:02:32;112.53;;;41.13;;
60436;SDS011;46289;51.992;4.498;2023-02-15T06:04:38;110.35;;;45.95;;
60436;SDS011;46289;51.992;4.498;2023-02-15T06:06:43;90.28;;;41.35;;
60436;SDS011;46289;51.992;4.498;2023-02-15T06:08:48;118.57;;;41.45;;
60436;SDS011;46289;51.992;4.498;2023-02-15T06:10:53;113.00;;;44.70;;
60436;SDS011;46289;51.992;4.498;2023-02-15T06:12:58;108.85;;;43.90;;
60436;SDS011;46289;51.992;4.498;2023-02-15T06:15:07;113.22;;;43.83;;
60436;SDS011;46289;51.992;4.498;2023-02-15T06:17:12;105.40;;;43.47;;
60436;SDS011;46289;51.992;4.498;2023-02-15T06:19:18;104.72;;;45.35;;
60436;SDS011;46289;51.992;4.498;2023-02-15T06:21:24;124.53;;;44.35;;
60436;SDS011;46289;51.992;4.498;2023-02-15T06:23:28;127.25;;;47.42;;
60436;SDS011;46289;51.992;4.498;2023-02-15T06:25:35;93.35;;;41.05;;
60436;SDS011;46289;51.992;4.498;2023-02-15T06:27:40;113.80;;;43.35;;
60436;SDS011;46289;51.992;4.498;2023-02-15T06:29:46;108.60;;;41.35;;
60436;SDS011;46289;51.992;4.498;2023-02-15T06:31:54;108.00;;;42.15;;
60436;SDS011;46289;51.992;4.498;2023-02-15T06:33:59;124.55;;;46.15;;
60436;SDS011;46289;51.992;4.498;2023-02-15T06:36:05;123.75;;;46.60;;
60436;SDS011;46289;51.992;4.498;2023-02-15T06:38:10;103.30;;;42.42;;
60436;SDS011;46289;51.992;4.498;2023-02-15T06:40:15;116.85;;;41.38;;
60436;SDS011;46289;51.992;4.498;2023-02-15T06:42:20;122.60;;;48.33;;
60436;SDS011;46289;51.992;4.498;2023-02-15T06:44:25;96.43;;;38.85;;
60436;SDS011;46289;51.992;4.498;2023-02-15T06:46:30;94.82;;;39.13;;
60436;SDS011;46289;51.992;4.498;2023-02-15T06:48:39;106.60;;;41.05;;
60436;SDS011;46289;51.992;4.498;2023-02-15T06:50:44;119.30;;;43.25;;
60436;SDS011;46289;51.992;4.498;2023-02-15T06:52:54;97.30;;;37.85;;
60436;SDS011;46289;51.992;4.498;2023-02-15T06:55:00;120.85;;;43.30;;
60436;SDS011;46289;51.992;4.498;2023-02-15T06:57:05;106.72;;;39.78;;
60436;SDS011;46289;51.992;4.498;2023-02-15T06:59:10;96.38;;;40.75;;
60436;SDS011;46289;51.992;4.498;2023-02-15T07:01:16;123.60;;;43.83;;
60436;SDS011;46289;51.992;4.498;2023-02-15T07:03:21;88.78;;;38.63;;
60436;SDS011;46289;51.992;4.498;2023-02-15T07:05:28;112.28;;;42.13;;
60436;SDS011;46289;51.992;4.498;2023-02-15T07:07:36;111.00;;;41.22;;
60436;SDS011;46289;51.992;4.498;2023-02-15T07:09:41;118.65;;;44.88;;
60436;SDS011;46289;51.992;4.498;2023-02-15T07:11:46;107.30;;;44.35;;
60436;SDS011;46289;51.992;4.498;2023-02-15T07:14:07;123.85;;;46.80;;
60436;SDS011;46289;51.992;4.498;2023-02-15T07:16:12;139.13;;;47.90;;
60436;SDS011;46289;51.992;4.498;2023-02-15T07:18:17;133.93;;;45.85;;
60436;SDS011;46289;51.992;4.498;2023-02-15T07:20:22;123.55;;;45.35;;
60436;SDS011;46289;51.992;4.498;2023-02-15T07:22:30;107.38;;;40.38;;
60436;SDS011;46289;51.992;4.498;2023-02-15T07:24:37;119.72;;;45.45;;
60436;SDS011;46289;51.992;4.498;2023-02-15T07:26:42;113.97;;;45.30;;
60436;SDS011;46289;51.992;4.498;2023-02-15T07:28:47;100.47;;;40.10;;
60436;SDS011;46289;51.992;4.498;2023-02-15T07:30:52;103.60;;;39.85;;
60436;SDS011;46289;51.992;4.498;2023-02-15T07:32:59;129.85;;;44.78;;
60436;SDS011;46289;51.992;4.498;2023-02-15T07:35:16;94.70;;;39.28;;
60436;SDS011;46289;51.992;4.498;2023-02-15T07:37:21;117.05;;;45.05;;
60436;SDS011;46289;51.992;4.498;2023-02-15T07:39:29;107.03;;;42.72;;
60436;SDS011;46289;51.992;4.498;2023-02-15T07:41:35;104.70;;;42.78;;
60436;SDS011;46289;51.992;4.498;2023-02-15T07:43:40;125.78;;;44.70;;
60436;SDS011;46289;51.992;4.498;2023-02-15T07:45:48;105.25;;;43.25;;
60436;SDS011;46289;51.992;4.498;2023-02-15T07:47:53;119.15;;;47.03;;
60436;SDS011;46289;51.992;4.498;2023-02-15T07:50:00;106.57;;;43.45;;
60436;SDS011;46289;51.992;4.498;2023-02-15T07:52:05;115.68;;;45.92;;
60436;SDS011;46289;51.992;4.498;2023-02-15T07:54:10;120.88;;;46.53;;
60436;SDS011;46289;51.992;4.498;2023-02-15T07:56:18;115.22;;;46.00;;
60436;SDS011;46289;51.992;4.498;2023-02-15T07:58:23;106.35;;;44.33;;
60436;SDS011;46289;51.992;4.498;2023-02-15T08:00:49;116.80;;;46.95;;
60436;SDS011;46289;51.992;4.498;2023-02-15T08:03:05;92.63;;;40.35;;
60436;SDS011;46289;51.992;4.498;2023-02-15T08:05:19;112.45;;;44.53;;
60436;SDS011;46289;51.992;4.498;2023-02-15T08:07:24;105.43;;;43.78;;
60436;SDS011;46289;51.992;4.498;2023-02-15T08:09:29;107.68;;;44.25;;
60436;SDS011;46289;51.992;4.498;2023-02-15T08:11:38;96.72;;;42.00;;
60436;SDS011;46289;51.992;4.498;2023-02-15T08:13:44;99.03;;;42.92;;
60436;SDS011;46289;51.992;4.498;2023-02-15T08:15:55;86.70;;;41.22;;
60436;SDS011;46289;51.992;4.498;2023-02-15T08:18:00;104.22;;;44.50;;
60436;SDS011;46289;51.992;4.498;2023-02-15T08:20:06;93.93;;;40.97;;
60436;SDS011;46289;51.992;4.498;2023-02-15T08:22:12;95.63;;;40.60;;
60436;SDS011;46289;51.992;4.498;2023-02-15T08:24:18;102.50;;;43.05;;
60436;SDS011;46289;51.992;4.498;2023-02-15T08:26:25;81.72;;;40.83;;
60436;SDS011;46289;51.992;4.498;2023-02-15T08:28:34;82.78;;;39.42;;
60436;SDS011;46289;51.992;4.498;2023-02-15T08:30:42;82.43;;;38.72;;
60436;SDS011;46289;51.992;4.498;2023-02-15T08:32:47;87.38;;;39.28;;
60436;SDS011;46289;51.992;4.498;2023-02-15T08:34:51;97.53;;;42.47;;
60436;SDS011;46289;51.992;4.498;2023-02-15T08:36:57;84.22;;;38.47;;
60436;SDS011;46289;51.992;4.498;2023-02-15T08:39:03;81.07;;;38.80;;
60436;SDS011;46289;51.992;4.498;2023-02-15T08:41:12;93.50;;;42.60;;
60436;SDS011;46289;51.992;4.498;2023-02-15T08:43:18;91.70;;;41.53;;
60436;SDS011;46289;51.992;4.498;2023-02-15T08:45:26;85.32;;;40.83;;
60436;SDS011;46289;51.992;4.498;2023-02-15T08:47:33;93.25;;;41.90;;
60436;SDS011;46289;51.992;4.498;2023-02-15T08:49:38;86.65;;;39.45;;
60436;SDS011;46289;51.992;4.498;2023-02-15T08:51:43;88.40;;;40.50;;
60436;SDS011;46289;51.992;4.498;2023-02-15T08:53:49;96.75;;;42.60;;
60436;SDS011;46289;51.992;4.498;2023-02-15T08:55:55;107.95;;;47.17;;
60436;SDS011;46289;51.992;4.498;2023-02-15T08:58:01;100.65;;;45.72;;
60436;SDS011;46289;51.992;4.498;2023-02-15T09:00:09;103.32;;;45.40;;
60436;SDS011;46289;51.992;4.498;2023-02-15T09:02:18;96.72;;;46.63;;
60436;SDS011;46289;51.992;4.498;2023-02-15T09:04:23;81.53;;;41.10;;
60436;SDS011;46289;51.992;4.498;2023-02-15T09:06:28;88.80;;;44.05;;
60436;SDS011;46289;51.992;4.498;2023-02-15T09:08:33;99.68;;;47.00;;
60436;SDS011;46289;51.992;4.498;2023-02-15T09:10:39;95.90;;;46.55;;
60436;SDS011;46289;51.992;4.498;2023-02-15T09:12:43;111.72;;;50.00;;
60436;SDS011;46289;51.992;4.498;2023-02-15T09:14:50;108.47;;;47.95;;
60436;SDS011;46289;51.992;4.498;2023-02-15T09:16:55;99.03;;;47.88;;
60436;SDS011;46289;51.992;4.498;2023-02-15T09:19:03;121.35;;;54.88;;
60436;SDS011;46289;51.992;4.498;2023-02-15T09:21:09;111.38;;;51.28;;
60436;SDS011;46289;51.992;4.498;2023-02-15T09:23:16;109.85;;;49.35;;
60436;SDS011;46289;51.992;4.498;2023-02-15T09:25:27;114.50;;;49.33;;
60436;SDS011;46289;51.992;4.498;2023-02-15T09:27:32;117.07;;;49.53;;
60436;SDS011;46289;51.992;4.498;2023-02-15T09:29:38;112.10;;;51.97;;
60436;SDS011;46289;51.992;4.498;2023-02-15T09:31:44;107.13;;;50.63;;
60436;SDS011;46289;51.992;4.498;2023-02-15T09:33:51;104.13;;;48.35;;
60436;SDS011;46289;51.992;4.498;2023-02-15T09:36:00;107.50;;;49.95;;
60436;SDS011;46289;51.992;4.498;2023-02-15T09:38:05;102.47;;;51.22;;
60436;SDS011;46289;51.992;4.498;2023-02-15T09:40:11;114.10;;;46.70;;
60436;SDS011;46289;51.992;4.498;2023-02-15T09:42:24;87.90;;;44.92;;
60436;SDS011;46289;51.992;4.498;2023-02-15T09:44:45;89.47;;;44.88;;
60436;SDS011;46289;51.992;4.498;2023-02-15T09:49:54;101.97;;;45.47;;
60436;SDS011;46289;51.992;4.498;2023-02-15T09:52:18;89.45;;;43.05;;
60436;SDS011;46289;51.992;4.498;2023-02-15T09:54:39;87.53;;;42.38;;
60436;SDS011;46289;51.992;4.498;2023-02-15T09:56:57;85.75;;;40.80;;
60436;SDS011;46289;51.992;4.498;2023-02-15T09:59:12;82.03;;;39.85;;
60436;SDS011;46289;51.992;4.498;2023-02-15T10:01:25;80.15;;;38.28;;
60436;SDS011;46289;51.992;4.498;2023-02-15T10:03:42;78.93;;;39.72;;
60436;SDS011;46289;51.992;4.498;2023-02-15T10:06:05;85.60;;;39.17;;
60436;SDS011;46289;51.992;4.498;2023-02-15T10:08:44;80.13;;;38.13;;
60436;SDS011;46289;51.992;4.498;2023-02-15T10:11:03;70.13;;;34.83;;
60436;SDS011;46289;51.992;4.498;2023-02-15T10:13:29;74.88;;;35.80;;
60436;SDS011;46289;51.992;4.498;2023-02-15T10:15:49;73.45;;;39.28;;
60436;SDS011;46289;51.992;4.498;2023-02-15T10:20:50;75.88;;;39.13;;
60436;SDS011;46289;51.992;4.498;2023-02-15T10:23:06;75.15;;;36.72;;
60436;SDS011;46289;51.992;4.498;2023-02-15T10:25:27;77.20;;;36.25;;
60436;SDS011;46289;51.992;4.498;2023-02-15T10:27:41;70.97;;;36.60;;
60436;SDS011;46289;51.992;4.498;2023-02-15T10:29:54;71.10;;;36.58;;
60436;SDS011;46289;51.992;4.498;2023-02-15T10:32:15;79.25;;;37.47;;
60436;SDS011;46289;51.992;4.498;2023-02-15T10:34:29;72.55;;;37.20;;
60436;SDS011;46289;51.992;4.498;2023-02-15T10:39:18;67.13;;;32.65;;
60436;SDS011;46289;51.992;4.498;2023-02-15T10:41:36;76.90;;;36.83;;
60436;SDS011;46289;51.992;4.498;2023-02-15T10:43:51;67.53;;;34.88;;
60436;SDS011;46289;51.992;4.498;2023-02-15T10:46:11;72.00;;;35.20;;
60436;SDS011;46289;51.992;4.498;2023-02-15T10:48:37;76.25;;;35.13;;
60436;SDS011;46289;51.992;4.498;2023-02-15T10:51:01;65.07;;;34.15;;
60436;SDS011;46289;51.992;4.498;2023-02-15T10:53:13;62.97;;;33.65;;
60436;SDS011;46289;51.992;4.498;2023-02-15T10:55:40;66.20;;;33.88;;
60436;SDS011;46289;51.992;4.498;2023-02-15T10:57:59;63.17;;;33.50;;
60436;SDS011;46289;51.992;4.498;2023-02-15T11:00:12;71.13;;;34.70;;
60436;SDS011;46289;51.992;4.498;2023-02-15T11:02:23;60.75;;;32.40;;
60436;SDS011;46289;51.992;4.498;2023-02-15T11:04:50;58.72;;;31.85;;
60436;SDS011;46289;51.992;4.498;2023-02-15T11:07:02;73.60;;;34.50;;
60436;SDS011;46289;51.992;4.498;2023-02-15T11:09:11;72.05;;;34.42;;
60436;SDS011;46289;51.992;4.498;2023-02-15T11:11:20;66.90;;;35.05;;
60436;SDS011;46289;51.992;4.498;2023-02-15T11:13:31;67.95;;;37.13;;
60436;SDS011;46289;51.992;4.498;2023-02-15T11:15:44;67.78;;;34.08;;
60436;SDS011;46289;51.992;4.498;2023-02-15T11:17:55;60.30;;;33.55;;
60436;SDS011;46289;51.992;4.498;2023-02-15T11:20:14;73.45;;;32.40;;
60436;SDS011;46289;51.992;4.498;2023-02-15T11:22:22;63.72;;;33.97;;
60436;SDS011;46289;51.992;4.498;2023-02-15T11:24:29;67.57;;;33.78;;
60436;SDS011;46289;51.992;4.498;2023-02-15T11:26:40;63.92;;;32.85;;
60436;SDS011;46289;51.992;4.498;2023-02-15T11:28:51;68.28;;;32.70;;
60436;SDS011;46289;51.992;4.498;2023-02-15T11:31:00;62.97;;;31.95;;
60436;SDS011;46289;51.992;4.498;2023-02-15T11:33:16;61.33;;;33.03;;
60436;SDS011;46289;51.992;4.498;2023-02-15T11:35:27;61.50;;;33.28;;
60436;SDS011;46289;51.992;4.498;2023-02-15T11:37:37;65.88;;;33.78;;
60436;SDS011;46289;51.992;4.498;2023-02-15T11:39:48;67.45;;;33.30;;
60436;SDS011;46289;51.992;4.498;2023-02-15T11:41:57;64.20;;;33.33;;
60436;SDS011;46289;51.992;4.498;2023-02-15T11:44:10;65.82;;;34.85;;
60436;SDS011;46289;51.992;4.498;2023-02-15T11:46:20;67.55;;;32.65;;
60436;SDS011;46289;51.992;4.498;2023-02-15T11:48:25;66.68;;;33.78;;
60436;SDS011;46289;51.992;4.498;2023-02-15T11:50:30;71.57;;;36.58;;
60436;SDS011;46289;51.992;4.498;2023-02-15T11:52:37;66.10;;;34.85;;
60436;SDS011;46289;51.992;4.498;2023-02-15T11:54:42;70.38;;;35.25;;
60436;SDS011;46289;51.992;4.498;2023-02-15T11:56:51;57.47;;;31.80;;
60436;SDS011;46289;51.992;4.498;2023-02-15T11:58:57;64.35;;;33.58;;
60436;SDS011;46289;51.992;4.498;2023-02-15T12:01:11;69.65;;;34.35;;
60436;SDS011;46289;51.992;4.498;2023-02-15T12:03:22;62.95;;;32.63;;
60436;SDS011;46289;51.992;4.498;2023-02-15T12:05:33;68.13;;;33.97;;
60436;SDS011;46289;51.992;4.498;2023-02-15T12:07:42;68.30;;;33.63;;
60436;SDS011;46289;51.992;4.498;2023-02-15T12:09:54;54.22;;;29.33;;
60436;SDS011;46289;51.992;4.498;2023-02-15T12:12:22;65.75;;;31.83;;
60436;SDS011;46289;51.992;4.498;2023-02-15T12:14:28;62.67;;;31.80;;
60436;SDS011;46289;51.992;4.498;2023-02-15T12:19:01;61.95;;;29.63;;
60436;SDS011;46289;51.992;4.498;2023-02-15T12:21:07;60.40;;;30.23;;
60436;SDS011;46289;51.992;4.498;2023-02-15T12:23:15;60.42;;;33.10;;
60436;SDS011;46289;51.992;4.498;2023-02-15T12:25:22;57.28;;;29.70;;
60436;SDS011;46289;51.992;4.498;2023-02-15T12:27:31;64.03;;;31.65;;
60436;SDS011;46289;51.992;4.498;2023-02-15T12:29:40;60.40;;;32.13;;
60436;SDS011;46289;51.992;4.498;2023-02-15T12:31:47;55.60;;;29.17;;
60436;SDS011;46289;51.992;4.498;2023-02-15T12:33:59;63.03;;;31.42;;
60436;SDS011;46289;51.992;4.498;2023-02-15T12:36:12;57.70;;;30.02;;
60436;SDS011;46289;51.992;4.498;2023-02-15T12:38:24;61.72;;;33.22;;
60436;SDS011;46289;51.992;4.498;2023-02-15T12:40:30;58.13;;;29.75;;
60436;SDS011;46289;51.992;4.498;2023-02-15T12:42:42;60.03;;;31.27;;
60436;SDS011;46289;51.992;4.498;2023-02-15T12:44:59;58.13;;;30.23;;
60436;SDS011;46289;51.992;4.498;2023-02-15T12:47:17;53.88;;;30.38;;
60436;SDS011;46289;51.992;4.498;2023-02-15T12:49:32;59.25;;;30.92;;